createdAt,value
2022-12-29T00:02:20.284Z,5.22
2022-12-29T00:04:47.816Z,5.82
2022-12-29T00:07:14.995Z,7.13
2022-12-29T00:09:42.182Z,5.45
2022-12-29T00:12:09.499Z,5.35
2022-12-29T00:14:55.325Z,5.18
2022-12-29T00:17:22.565Z,5.75
2022-12-29T00:20:09.902Z,7.03
2022-12-29T00:22:58.895Z,5.22
2022-12-29T00:28:32.113Z,5.15
2022-12-29T00:31:19.827Z,4.78
2022-12-29T00:34:05.659Z,4.95
2022-12-29T00:36:40.927Z,4.80
2022-12-29T00:39:30.252Z,5.85
2022-12-29T00:42:15.970Z,5.78
2022-12-29T00:44:44.473Z,5.97
2022-12-29T00:47:11.853Z,5.38
2022-12-29T00:49:39.429Z,6.43
2022-12-29T00:52:11.001Z,5.18
2022-12-29T00:54:39.163Z,5.50
2022-12-29T00:57:07.824Z,4.97
2022-12-29T00:59:38.600Z,6.13
2022-12-29T01:02:05.967Z,5.53
2022-12-29T01:04:33.795Z,5.00
2022-12-29T01:07:02.290Z,4.13
2022-12-29T01:09:48.676Z,4.82
2022-12-29T01:12:15.515Z,4.47
2022-12-29T01:14:42.878Z,3.70
2022-12-29T01:17:10.386Z,2.47
2022-12-29T01:19:37.609Z,5.47
2022-12-29T01:22:05.050Z,5.35
2022-12-29T01:24:32.203Z,4.28
2022-12-29T01:26:59.491Z,4.30
2022-12-29T01:29:26.641Z,6.20
2022-12-29T01:31:53.825Z,5.45
2022-12-29T01:34:20.997Z,5.93
2022-12-29T01:36:48.167Z,4.75
2022-12-29T01:39:15.420Z,7.95
2022-12-29T01:41:43.704Z,4.90
2022-12-29T01:44:29.579Z,4.45
2022-12-29T01:46:57.024Z,5.95
2022-12-29T01:49:26.265Z,5.90
2022-12-29T01:51:58.961Z,3.92
2022-12-29T01:54:29.782Z,5.15
2022-12-29T01:56:59.045Z,4.70
2022-12-29T01:59:31.718Z,4.88
2022-12-29T02:01:59.277Z,6.35
2022-12-29T02:04:28.516Z,6.75
2022-12-29T02:07:01.350Z,4.50
2022-12-29T02:09:28.709Z,5.13
2022-12-29T02:11:56.452Z,4.70
2022-12-29T02:14:23.732Z,3.40
2022-12-29T02:17:09.945Z,4.32
2022-12-29T02:19:55.459Z,5.28
2022-12-29T02:22:28.979Z,3.42
2022-12-29T02:25:02.378Z,4.35
2022-12-29T02:27:46.026Z,4.18
2022-12-29T02:30:28.740Z,2.53
2022-12-29T02:32:58.962Z,6.05
2022-12-29T02:35:46.194Z,4.80
2022-12-29T02:38:19.421Z,4.70
2022-12-29T02:40:59.059Z,3.10
2022-12-29T02:43:28.277Z,5.60
2022-12-29T02:46:06.609Z,3.17
2022-12-29T02:48:43.309Z,4.18
2022-12-29T02:51:30.844Z,7.65
2022-12-29T02:54:18.326Z,2.78
2022-12-29T02:56:45.322Z,4.30
2022-12-29T02:59:15.130Z,6.00
2022-12-29T03:02:02.427Z,2.40
2022-12-29T03:05:03.680Z,4.28
2022-12-29T03:07:34.076Z,2.50
2022-12-29T03:10:17.654Z,5.18
2022-12-29T03:13:27.277Z,2.85
2022-12-29T03:16:04.284Z,2.55
2022-12-29T03:18:44.117Z,2.58
2022-12-29T03:21:14.358Z,4.28
2022-12-29T03:23:44.850Z,3.60
2022-12-29T03:26:14.038Z,3.88
2022-12-29T03:28:45.308Z,5.78
2022-12-29T03:31:17.366Z,4.35
2022-12-29T03:33:45.633Z,6.78
2022-12-29T03:36:15.795Z,2.63
2022-12-29T03:38:45.969Z,4.75
2022-12-29T03:41:18.062Z,3.78
2022-12-29T03:43:45.764Z,4.32
2022-12-29T03:46:13.107Z,6.05
2022-12-29T03:48:45.060Z,6.30
2022-12-29T03:51:12.295Z,3.72
2022-12-29T03:53:40.356Z,2.97
2022-12-29T03:56:07.775Z,3.05
2022-12-29T03:58:34.975Z,2.08
2022-12-29T04:01:11.732Z,3.72
2022-12-29T04:03:39.859Z,4.68
2022-12-29T04:06:08.592Z,1.95
2022-12-29T04:08:48.549Z,6.40
2022-12-29T04:11:15.715Z,1.83
2022-12-29T04:13:43.236Z,4.80
2022-12-29T04:16:14.454Z,6.28
2022-12-29T04:18:42.651Z,5.43
2022-12-29T04:21:10.396Z,3.70
2022-12-29T04:23:40.826Z,1.40
2022-12-29T04:26:10.395Z,5.75
2022-12-29T04:29:06.571Z,2.88
2022-12-29T04:31:59.263Z,8.55
2022-12-29T04:34:26.535Z,4.15
2022-12-29T04:36:54.641Z,4.32
2022-12-29T04:39:21.838Z,8.98
2022-12-29T04:41:49.161Z,5.60
2022-12-29T04:44:20.045Z,4.70
2022-12-29T04:47:07.633Z,3.42
2022-12-29T04:49:53.427Z,7.85
2022-12-29T04:52:33.043Z,7.85
2022-12-29T04:55:00.543Z,6.18
2022-12-29T04:57:28.109Z,7.18
2022-12-29T04:59:58.009Z,3.80
2022-12-29T05:02:25.873Z,7.32
2022-12-29T05:04:56.137Z,7.28
2022-12-29T05:09:51.795Z,5.55
2022-12-29T05:12:19.486Z,5.95
2022-12-29T05:14:57.698Z,6.13
2022-12-29T05:17:25.251Z,4.78
2022-12-29T05:19:53.216Z,6.63
2022-12-29T05:22:20.467Z,6.18
2022-12-29T05:24:47.760Z,9.02
2022-12-29T05:27:15.163Z,7.72
2022-12-29T05:29:55.527Z,10.85
2022-12-29T05:32:25.972Z,6.65
2022-12-29T05:34:54.506Z,8.57
2022-12-29T05:37:22.092Z,16.33
2022-12-29T05:39:49.210Z,7.57
2022-12-29T05:42:16.489Z,5.38
2022-12-29T05:44:54.717Z,10.35
2022-12-29T05:47:26.183Z,7.38
2022-12-29T05:50:11.377Z,9.82
2022-12-29T05:52:57.273Z,12.85
2022-12-29T05:55:24.748Z,6.72
2022-12-29T05:57:54.079Z,6.50
2022-12-29T06:00:21.336Z,9.23
2022-12-29T06:02:48.591Z,9.32
2022-12-29T06:05:17.709Z,8.00
2022-12-29T06:07:46.278Z,19.08
2022-12-29T06:10:15.827Z,6.78
2022-12-29T06:12:47.240Z,7.80
2022-12-29T06:15:15.524Z,10.25
2022-12-29T06:17:43.601Z,9.95
2022-12-29T06:20:11.346Z,6.85
2022-12-29T06:22:38.866Z,9.75
2022-12-29T06:25:06.712Z,13.10
2022-12-29T06:27:37.112Z,9.48
2022-12-29T06:30:05.109Z,11.50
2022-12-29T06:32:32.343Z,8.60
2022-12-29T06:35:07.387Z,8.23
2022-12-29T06:37:39.618Z,8.32
2022-12-29T06:40:07.865Z,8.52
2022-12-29T06:42:51.407Z,12.02
2022-12-29T06:45:40.309Z,10.15
2022-12-29T06:48:08.229Z,8.93
2022-12-29T06:50:35.654Z,12.05
2022-12-29T06:53:02.903Z,10.07
2022-12-29T06:55:30.238Z,7.40
2022-12-29T06:57:57.943Z,6.40
2022-12-29T07:00:26.104Z,9.55
2022-12-29T07:02:53.447Z,9.75
2022-12-29T07:05:20.754Z,6.78
2022-12-29T07:07:48.079Z,10.23
2022-12-29T07:10:15.319Z,14.90
2022-12-29T07:12:42.715Z,9.10
2022-12-29T07:15:10.240Z,7.57
2022-12-29T07:17:37.361Z,5.68
2022-12-29T07:20:05.101Z,10.90
2022-12-29T07:22:32.261Z,10.25
2022-12-29T07:24:59.397Z,9.40
2022-12-29T07:27:26.548Z,10.82
2022-12-29T07:29:53.820Z,8.45
2022-12-29T07:32:21.087Z,3.20
2022-12-29T07:34:48.545Z,2.97
2022-12-29T07:37:19.121Z,4.20
2022-12-29T07:39:46.299Z,8.15
2022-12-29T07:42:13.580Z,7.22
2022-12-29T07:49:46.983Z,6.40
2022-12-29T07:52:14.173Z,10.10
2022-12-29T07:54:41.489Z,6.50
2022-12-29T07:57:08.717Z,4.57
2022-12-29T07:59:35.979Z,11.40
2022-12-29T08:02:03.401Z,11.60
2022-12-29T08:04:30.771Z,13.43
2022-12-29T08:06:57.891Z,7.60
2022-12-29T08:09:27.216Z,7.50
2022-12-29T08:11:55.292Z,11.23
2022-12-29T08:14:22.628Z,13.50
2022-12-29T08:16:50.332Z,12.85
2022-12-29T08:19:17.476Z,11.50
2022-12-29T08:21:44.627Z,11.52
2022-12-29T08:24:12.236Z,7.53
2022-12-29T08:26:39.970Z,13.13
2022-12-29T08:29:07.323Z,14.02
2022-12-29T08:31:34.607Z,10.95
2022-12-29T08:34:04.121Z,10.98
2022-12-29T08:36:31.988Z,10.57
2022-12-29T08:39:01.008Z,20.90
2022-12-29T08:41:28.256Z,10.75
2022-12-29T08:43:55.480Z,12.60
2022-12-29T08:46:22.935Z,8.00
2022-12-29T08:48:50.241Z,7.30
2022-12-29T08:51:22.787Z,10.98
2022-12-29T08:53:51.824Z,12.20
2022-12-29T08:56:19.490Z,12.52
2022-12-29T08:58:50.817Z,14.05
2022-12-29T09:01:19.746Z,9.57
2022-12-29T09:06:39.947Z,8.75
2022-12-29T09:09:07.765Z,10.50
2022-12-29T09:11:34.940Z,16.52
2022-12-29T09:14:02.044Z,9.32
2022-12-29T09:16:32.321Z,13.88
2022-12-29T09:19:02.202Z,5.38
2022-12-29T09:21:29.389Z,12.38
2022-12-29T09:23:56.526Z,6.03
2022-12-29T09:26:23.642Z,4.95
2022-12-29T09:28:51.058Z,5.53
2022-12-29T09:31:18.348Z,8.73
2022-12-29T09:33:45.642Z,12.40
2022-12-29T09:36:12.818Z,9.88
2022-12-29T09:38:40.029Z,13.13
2022-12-29T09:41:12.736Z,9.63
2022-12-29T09:43:47.068Z,7.53
2022-12-29T09:46:28.112Z,6.72
2022-12-29T09:49:15.727Z,11.02
2022-12-29T09:51:44.579Z,11.15
2022-12-29T09:54:23.992Z,8.60
2022-12-29T09:56:52.538Z,16.27
2022-12-29T09:59:25.023Z,17.80
2022-12-29T10:02:01.789Z,9.50
2022-12-29T10:04:29.581Z,4.97
2022-12-29T10:07:28.575Z,7.82
2022-12-29T10:10:11.907Z,7.75
2022-12-29T10:12:42.760Z,15.68
2022-12-29T10:15:19.852Z,7.85
2022-12-29T10:17:53.098Z,6.90
2022-12-29T10:20:44.364Z,5.28
2022-12-29T10:23:17.813Z,7.70
2022-12-29T10:25:45.378Z,8.40
2022-12-29T10:28:23.911Z,6.70
2022-12-29T10:30:53.788Z,5.05
2022-12-29T10:33:24.739Z,12.32
2022-12-29T10:35:52.557Z,8.77
2022-12-29T10:38:29.488Z,6.40
2022-12-29T10:41:07.799Z,12.38
2022-12-29T10:43:39.567Z,9.27
2022-12-29T10:46:11.203Z,6.88
2022-12-29T10:48:39.091Z,9.60
2022-12-29T10:51:07.656Z,9.75
2022-12-29T10:53:42.032Z,10.95
2022-12-29T10:56:15.411Z,10.65
2022-12-29T10:58:48.038Z,13.95
2022-12-29T11:01:17.054Z,15.05
2022-12-29T11:04:13.987Z,12.68
2022-12-29T11:06:41.327Z,9.25
2022-12-29T11:09:16.911Z,12.25
2022-12-29T11:11:44.120Z,12.75
2022-12-29T11:14:15.651Z,12.73
2022-12-29T11:16:45.115Z,14.30
2022-12-29T11:19:25.833Z,10.55
2022-12-29T11:21:53.292Z,13.98
2022-12-29T11:24:27.810Z,7.43
2022-12-29T11:27:10.819Z,14.15
2022-12-29T11:29:42.553Z,20.92
2022-12-29T11:32:14.181Z,17.02
2022-12-29T11:34:41.733Z,13.70
2022-12-29T11:37:14.088Z,12.70
2022-12-29T11:39:50.913Z,13.27
2022-12-29T11:42:19.168Z,14.82
2022-12-29T11:44:47.957Z,14.52
2022-12-29T11:47:23.504Z,13.63
2022-12-29T11:49:51.716Z,9.82
2022-12-29T11:52:22.507Z,14.73
2022-12-29T11:54:52.368Z,11.82
2022-12-29T11:57:20.840Z,12.30
2022-12-29T11:59:53.940Z,15.65
2022-12-29T12:02:42.781Z,11.90
2022-12-29T12:05:14.351Z,16.33
2022-12-29T12:07:46.331Z,20.85
2022-12-29T12:10:18.452Z,19.77
2022-12-29T12:13:00.901Z,10.43
2022-12-29T12:15:43.458Z,20.58
2022-12-29T12:18:32.959Z,14.75
2022-12-29T12:21:19.424Z,15.15
2022-12-29T12:23:55.115Z,16.42
2022-12-29T12:26:37.194Z,19.23
2022-12-29T12:29:12.362Z,18.50
2022-12-29T12:32:01.505Z,12.30
2022-12-29T12:34:32.124Z,16.33
2022-12-29T12:37:05.412Z,18.65
2022-12-29T12:39:45.836Z,13.35
2022-12-29T12:42:13.159Z,22.73
2022-12-29T12:44:46.287Z,19.30
2022-12-29T12:47:30.031Z,16.80
2022-12-29T12:50:07.575Z,9.00
2022-12-29T12:52:49.872Z,6.85
2022-12-29T12:55:39.682Z,17.95
2022-12-29T12:58:22.472Z,14.45
2022-12-29T13:00:52.756Z,15.50
2022-12-29T13:05:56.535Z,12.75
2022-12-29T13:08:31.086Z,14.68
2022-12-29T13:11:04.319Z,11.90
2022-12-29T13:13:34.575Z,10.73
2022-12-29T13:18:28.963Z,7.55
2022-12-29T13:21:01.384Z,11.23
2022-12-29T13:23:47.508Z,12.30
2022-12-29T13:26:20.078Z,13.73
2022-12-29T13:28:50.379Z,13.27
2022-12-29T13:33:49.405Z,12.45
2022-12-29T13:36:40.793Z,11.35
2022-12-29T13:39:17.551Z,9.68
2022-12-29T13:42:07.048Z,11.90
2022-12-29T13:44:53.401Z,12.77
2022-12-29T13:47:23.831Z,10.43
2022-12-29T13:49:52.075Z,10.10
2022-12-29T13:52:38.132Z,11.90
2022-12-29T13:55:20.922Z,7.00
2022-12-29T13:58:06.918Z,15.65
2022-12-29T14:00:46.942Z,14.98
2022-12-29T14:03:24.918Z,14.43
2022-12-29T14:06:13.973Z,11.18
2022-12-29T14:08:41.791Z,11.75
2022-12-29T14:11:17.072Z,13.77
2022-12-29T14:13:45.970Z,12.73
2022-12-29T14:16:26.264Z,12.20
2022-12-29T14:18:55.262Z,15.82
2022-12-29T14:21:24.385Z,10.25
2022-12-29T14:23:54.875Z,8.82
2022-12-29T14:26:38.368Z,9.75
2022-12-29T14:29:43.091Z,9.90
2022-12-29T14:32:33.293Z,7.32
2022-12-29T14:35:04.302Z,10.98
2022-12-29T14:37:32.780Z,4.95
2022-12-29T14:40:20.908Z,8.90
2022-12-29T14:42:48.961Z,6.07
2022-12-29T14:45:16.101Z,8.02
2022-12-29T14:47:45.014Z,4.50
2022-12-29T14:50:12.375Z,11.02
2022-12-29T14:52:48.972Z,6.57
2022-12-29T14:57:46.292Z,6.95
2022-12-29T15:00:13.442Z,13.77
2022-12-29T15:02:42.615Z,11.65
2022-12-29T15:05:24.269Z,6.78
2022-12-29T15:07:51.726Z,9.35
2022-12-29T15:10:21.487Z,11.10
2022-12-29T15:12:54.152Z,14.63
2022-12-29T15:15:30.876Z,13.55
2022-12-29T15:17:58.086Z,14.55
2022-12-29T15:20:30.115Z,13.45
2022-12-29T15:22:57.568Z,9.40
2022-12-29T15:25:25.147Z,11.60
2022-12-29T15:27:53.622Z,7.55
2022-12-29T15:30:21.296Z,7.53
2022-12-29T15:32:49.767Z,10.02
2022-12-29T15:35:24.556Z,11.98
2022-12-29T15:37:51.655Z,8.18
2022-12-29T15:40:25.503Z,7.68
2022-12-29T15:42:55.792Z,15.52
2022-12-29T15:45:26.431Z,12.35
2022-12-29T15:47:55.729Z,13.27
2022-12-29T15:50:22.933Z,10.98
2022-12-29T15:52:50.478Z,8.05
2022-12-29T15:55:22.338Z,12.05
2022-12-29T15:57:49.629Z,12.02
2022-12-29T16:00:24.038Z,12.23
2022-12-29T16:02:51.612Z,7.78
2022-12-29T16:05:19.627Z,7.55
2022-12-29T16:07:57.277Z,9.07
2022-12-29T16:10:27.929Z,7.28
2022-12-29T16:12:55.229Z,5.57
2022-12-29T16:15:22.477Z,14.63
2022-12-29T16:18:20.326Z,8.82
2022-12-29T16:22:06.300Z,9.48
2022-12-29T16:24:34.686Z,9.50
2022-12-29T16:27:23.420Z,12.00
2022-12-29T16:29:53.245Z,10.85
2022-12-29T16:32:31.220Z,7.07
2022-12-29T16:35:12.456Z,10.93
2022-12-29T16:37:42.990Z,7.53
2022-12-29T16:40:19.356Z,10.75
2022-12-29T16:42:52.330Z,9.68
2022-12-29T16:48:07.844Z,12.02
2022-12-29T16:50:40.145Z,6.97
2022-12-29T16:53:08.181Z,7.70
2022-12-29T16:55:35.894Z,8.95
2022-12-29T16:58:03.500Z,8.00
2022-12-29T17:00:51.126Z,8.70
2022-12-29T17:03:18.510Z,7.15
2022-12-29T17:05:45.979Z,6.50
2022-12-29T17:08:23.926Z,9.05
2022-12-29T17:11:14.904Z,11.15
2022-12-29T17:13:42.084Z,7.93
2022-12-29T17:16:14.387Z,6.63
2022-12-29T17:18:41.693Z,6.78
2022-12-29T17:21:08.960Z,7.13
2022-12-29T17:23:36.256Z,8.30
2022-12-29T17:26:03.683Z,12.05
2022-12-29T17:28:33.075Z,12.57
2022-12-29T17:31:02.578Z,8.25
2022-12-29T17:33:31.652Z,10.02
2022-12-29T17:35:58.802Z,10.45
2022-12-29T17:38:30.249Z,7.82
2022-12-29T17:40:57.720Z,10.13
2022-12-29T17:43:25.215Z,10.85
2022-12-29T17:45:59.995Z,13.88
2022-12-29T17:48:27.186Z,8.80
2022-12-29T17:50:54.878Z,11.65
2022-12-29T17:53:23.486Z,10.57
2022-12-29T17:55:50.963Z,6.55
2022-12-29T17:58:25.570Z,14.57
2022-12-29T18:00:54.385Z,8.45
2022-12-29T18:03:29.297Z,6.38
2022-12-29T18:05:57.016Z,10.40
2022-12-29T18:08:24.220Z,11.50
2022-12-29T18:10:55.432Z,7.25
2022-12-29T18:13:30.739Z,6.93
2022-12-29T18:16:03.403Z,9.85
2022-12-29T18:18:30.599Z,5.55
2022-12-29T18:21:00.657Z,5.22
2022-12-29T18:23:29.301Z,10.63
2022-12-29T18:26:00.876Z,15.38
2022-12-29T18:28:28.530Z,9.02
2022-12-29T18:31:02.685Z,12.15
2022-12-29T18:33:31.628Z,7.90
2022-12-29T18:36:03.108Z,16.95
2022-12-29T18:38:32.355Z,7.63
2022-12-29T18:41:00.760Z,7.90
2022-12-29T18:43:30.719Z,12.43
2022-12-29T18:45:57.914Z,7.00
2022-12-29T18:48:25.126Z,12.40
2022-12-29T18:50:53.285Z,11.98
2022-12-29T18:53:22.229Z,16.88
2022-12-29T18:55:49.818Z,10.43
2022-12-29T18:58:17.490Z,9.85
2022-12-29T19:00:45.466Z,9.65
2022-12-29T19:03:13.594Z,11.45
2022-12-29T19:05:42.015Z,9.90
2022-12-29T19:08:09.883Z,9.82
2022-12-29T19:10:40.552Z,11.60
2022-12-29T19:13:07.903Z,10.80
2022-12-29T19:15:38.136Z,10.77
2022-12-29T19:20:56.844Z,15.45
2022-12-29T19:23:25.319Z,13.40
2022-12-29T19:25:54.241Z,12.02
2022-12-29T19:28:21.595Z,8.18
2022-12-29T19:30:52.224Z,8.32
2022-12-29T19:33:20.232Z,13.15
2022-12-29T19:35:47.512Z,14.25
2022-12-29T19:38:17.332Z,21.92
2022-12-29T19:40:45.371Z,26.40
2022-12-29T19:43:15.272Z,14.13
2022-12-29T19:45:46.086Z,16.80
2022-12-29T19:48:15.198Z,9.25
2022-12-29T19:50:43.442Z,28.00
2022-12-29T19:53:10.909Z,12.90
2022-12-29T19:55:38.248Z,7.60
2022-12-29T19:58:09.177Z,11.18
2022-12-29T20:00:36.509Z,13.85
2022-12-29T20:03:03.938Z,15.73
2022-12-29T20:05:32.243Z,16.65
2022-12-29T20:07:59.347Z,11.45
2022-12-29T20:10:26.531Z,9.27
2022-12-29T20:12:53.771Z,12.43
2022-12-29T20:15:24.083Z,18.92
2022-12-29T20:20:41.347Z,19.17
2022-12-29T20:23:08.449Z,16.77
2022-12-29T20:25:51.117Z,10.45
2022-12-29T20:28:18.336Z,17.70
2022-12-29T20:30:45.546Z,14.32
2022-12-29T20:33:12.743Z,18.27
2022-12-29T20:35:39.904Z,8.52
2022-12-29T20:38:07.219Z,17.73
2022-12-29T20:40:36.960Z,15.77
2022-12-29T20:43:09.143Z,15.50
2022-12-29T20:45:36.804Z,12.23
2022-12-29T20:48:04.272Z,14.95
2022-12-29T20:50:31.503Z,17.83
2022-12-29T20:53:00.779Z,15.65
2022-12-29T20:55:28.337Z,12.50
2022-12-29T20:58:23.126Z,10.50
2022-12-29T21:00:42.981Z,14.27
2022-12-29T21:03:10.208Z,13.25
2022-12-29T21:05:38.726Z,12.18
2022-12-29T21:08:06.196Z,16.17
2022-12-29T21:10:33.439Z,17.38
2022-12-29T21:13:01.752Z,15.27
2022-12-29T21:15:30.095Z,15.68
2022-12-29T21:17:57.304Z,19.45
2022-12-29T21:20:32.093Z,17.98
2022-12-29T21:23:00.696Z,11.52
2022-12-29T21:25:36.816Z,14.23
2022-12-29T21:28:05.402Z,14.18
2022-12-29T21:30:33.160Z,16.27
2022-12-29T21:33:00.698Z,11.95
2022-12-29T21:35:28.343Z,10.68
2022-12-29T21:37:55.592Z,20.02
2022-12-29T21:40:23.147Z,11.77
2022-12-29T21:42:51.603Z,15.70
2022-12-29T21:45:24.860Z,8.77
2022-12-29T21:48:14.616Z,10.13
2022-12-29T21:51:01.534Z,8.90
2022-12-29T21:53:41.244Z,11.00
2022-12-29T21:56:10.620Z,14.13
2022-12-29T21:59:00.558Z,16.98
2022-12-29T22:01:47.415Z,13.88
2022-12-29T22:04:34.158Z,9.65
2022-12-29T22:07:20.693Z,12.70
2022-12-29T22:10:06.975Z,12.05
2022-12-29T22:12:53.460Z,11.82
2022-12-29T22:15:20.789Z,10.93
2022-12-29T22:17:49.340Z,12.27
2022-12-29T22:20:17.192Z,7.63
2022-12-29T22:22:44.390Z,6.43
2022-12-29T22:25:11.668Z,10.07
2022-12-29T22:27:38.888Z,15.38
2022-12-29T22:30:06.824Z,8.63
2022-12-29T22:32:37.176Z,7.68
2022-12-29T22:35:08.396Z,6.28
2022-12-29T22:37:37.420Z,9.60
2022-12-29T22:40:05.744Z,11.20
2022-12-29T22:42:33.993Z,9.88
2022-12-29T22:45:01.142Z,11.93
2022-12-29T22:47:28.433Z,8.43
2022-12-29T22:49:55.681Z,12.63
2022-12-29T22:52:22.832Z,7.88
2022-12-29T22:54:49.966Z,13.57
2022-12-29T22:57:17.153Z,9.93
2022-12-29T22:59:44.321Z,6.22
2022-12-29T23:02:11.578Z,14.07
2022-12-29T23:07:26.041Z,12.57
2022-12-29T23:09:53.240Z,10.82
2022-12-29T23:12:20.437Z,8.30
2022-12-29T23:14:47.605Z,8.25
2022-12-29T23:17:17.800Z,13.40
2022-12-29T23:19:47.124Z,7.15
2022-12-29T23:22:14.841Z,13.27
2022-12-29T23:24:41.992Z,9.27
2022-12-29T23:27:09.158Z,11.27
2022-12-29T23:29:36.388Z,10.93
2022-12-29T23:32:03.517Z,11.05
2022-12-29T23:34:30.674Z,15.55
2022-12-29T23:36:58.032Z,9.77
2022-12-29T23:39:25.300Z,4.78
2022-12-29T23:41:52.673Z,8.70
2022-12-29T23:44:20.013Z,10.90
2022-12-29T23:46:47.294Z,15.70
2022-12-29T23:49:14.452Z,8.23
2022-12-29T23:51:41.820Z,10.88
2022-12-29T23:54:08.979Z,12.93
2022-12-29T23:56:36.188Z,13.25
2022-12-29T23:59:04.730Z,12.10
